sensor_id;sensor_type;location;lat;lon;timestamp;P1;durP1;ratioP1;P2;durP2;ratioP2
10410;SDS011;5251;52.112;8.606;2022-08-30T00:01:10;1.90;;;1.60;;
10410;SDS011;5251;52.112;8.606;2022-08-30T00:03:39;2.65;;;1.67;;
10410;SDS011;5251;52.112;8.606;2022-08-30T00:06:10;1.60;;;1.50;;
10410;SDS011;5251;52.112;8.606;2022-08-30T00:08:37;2.28;;;1.58;;
10410;SDS011;5251;52.112;8.606;2022-08-30T00:11:05;2.70;;;1.40;;
10410;SDS011;5251;52.112;8.606;2022-08-30T00:13:34;2.03;;;1.45;;
10410;SDS011;5251;52.112;8.606;2022-08-30T00:16:01;2.90;;;1.40;;
10410;SDS011;5251;52.112;8.606;2022-08-30T00:18:27;1.83;;;1.60;;
10410;SDS011;5251;52.112;8.606;2022-08-30T00:20:53;1.75;;;1.50;;
10410;SDS011;5251;52.112;8.606;2022-08-30T00:23:20;1.50;;;1.35;;
10410;SDS011;5251;52.112;8.606;2022-08-30T00:25:46;1.58;;;1.48;;
10410;SDS011;5251;52.112;8.606;2022-08-30T00:28:12;1.98;;;1.40;;
10410;SDS011;5251;52.112;8.606;2022-08-30T00:30:39;1.85;;;1.50;;
10410;SDS011;5251;52.112;8.606;2022-08-30T00:33:06;1.90;;;1.63;;
10410;SDS011;5251;52.112;8.606;2022-08-30T00:35:31;3.72;;;1.60;;
10410;SDS011;5251;52.112;8.606;2022-08-30T00:37:58;1.52;;;1.42;;
10410;SDS011;5251;52.112;8.606;2022-08-30T00:40:24;1.52;;;1.27;;
10410;SDS011;5251;52.112;8.606;2022-08-30T00:42:52;2.85;;;1.65;;
10410;SDS011;5251;52.112;8.606;2022-08-30T00:45:21;2.05;;;1.63;;
10410;SDS011;5251;52.112;8.606;2022-08-30T00:47:49;3.17;;;1.73;;
10410;SDS011;5251;52.112;8.606;2022-08-30T00:50:16;1.40;;;1.30;;
10410;SDS011;5251;52.112;8.606;2022-08-30T00:52:45;1.83;;;1.45;;
10410;SDS011;5251;52.112;8.606;2022-08-30T00:55:12;1.95;;;1.35;;
10410;SDS011;5251;52.112;8.606;2022-08-30T00:57:41;1.45;;;1.35;;
10410;SDS011;5251;52.112;8.606;2022-08-30T01:00:09;3.15;;;1.52;;
10410;SDS011;5251;52.112;8.606;2022-08-30T01:02:36;1.92;;;1.58;;
10410;SDS011;5251;52.112;8.606;2022-08-30T01:05:03;2.00;;;1.52;;
10410;SDS011;5251;52.112;8.606;2022-08-30T01:07:30;2.80;;;1.73;;
10410;SDS011;5251;52.112;8.606;2022-08-30T01:09:59;1.70;;;1.60;;
10410;SDS011;5251;52.112;8.606;2022-08-30T01:12:26;2.13;;;1.90;;
10410;SDS011;5251;52.112;8.606;2022-08-30T01:14:52;2.08;;;1.45;;
10410;SDS011;5251;52.112;8.606;2022-08-30T01:17:17;2.58;;;1.70;;
10410;SDS011;5251;52.112;8.606;2022-08-30T01:22:32;1.40;;;1.30;;
10410;SDS011;5251;52.112;8.606;2022-08-30T01:25:09;1.60;;;1.50;;
10410;SDS011;5251;52.112;8.606;2022-08-30T01:27:37;1.73;;;1.40;;
10410;SDS011;5251;52.112;8.606;2022-08-30T01:30:08;1.67;;;1.50;;
10410;SDS011;5251;52.112;8.606;2022-08-30T01:32:37;1.33;;;1.23;;
10410;SDS011;5251;52.112;8.606;2022-08-30T01:35:07;1.42;;;1.33;;
10410;SDS011;5251;52.112;8.606;2022-08-30T01:37:33;1.65;;;1.40;;
10410;SDS011;5251;52.112;8.606;2022-08-30T01:40:02;2.50;;;1.85;;
10410;SDS011;5251;52.112;8.606;2022-08-30T01:42:28;1.85;;;1.60;;
10410;SDS011;5251;52.112;8.606;2022-08-30T01:44:54;2.45;;;1.52;;
10410;SDS011;5251;52.112;8.606;2022-08-30T01:47:20;1.40;;;1.30;;
10410;SDS011;5251;52.112;8.606;2022-08-30T01:49:46;1.70;;;1.30;;
10410;SDS011;5251;52.112;8.606;2022-08-30T01:52:12;2.47;;;1.70;;
10410;SDS011;5251;52.112;8.606;2022-08-30T01:54:39;1.40;;;1.30;;
10410;SDS011;5251;52.112;8.606;2022-08-30T01:57:06;1.45;;;1.35;;
10410;SDS011;5251;52.112;8.606;2022-08-30T01:59:34;2.67;;;1.88;;
10410;SDS011;5251;52.112;8.606;2022-08-30T02:02:00;2.50;;;1.63;;
10410;SDS011;5251;52.112;8.606;2022-08-30T02:04:26;1.50;;;1.40;;
10410;SDS011;5251;52.112;8.606;2022-08-30T02:06:52;2.25;;;1.45;;
10410;SDS011;5251;52.112;8.606;2022-08-30T02:09:18;1.50;;;1.40;;
10410;SDS011;5251;52.112;8.606;2022-08-30T02:11:43;2.13;;;1.63;;
10410;SDS011;5251;52.112;8.606;2022-08-30T02:14:09;1.30;;;1.20;;
10410;SDS011;5251;52.112;8.606;2022-08-30T02:16:35;1.65;;;1.52;;
10410;SDS011;5251;52.112;8.606;2022-08-30T02:19:01;1.98;;;1.50;;
10410;SDS011;5251;52.112;8.606;2022-08-30T02:21:27;1.70;;;1.60;;
10410;SDS011;5251;52.112;8.606;2022-08-30T02:23:54;1.50;;;1.40;;
10410;SDS011;5251;52.112;8.606;2022-08-30T02:26:20;1.80;;;1.50;;
10410;SDS011;5251;52.112;8.606;2022-08-30T02:28:46;2.65;;;1.98;;
10410;SDS011;5251;52.112;8.606;2022-08-30T02:31:12;1.83;;;1.55;;
10410;SDS011;5251;52.112;8.606;2022-08-30T02:33:38;1.88;;;1.63;;
10410;SDS011;5251;52.112;8.606;2022-08-30T02:36:04;2.00;;;1.60;;
10410;SDS011;5251;52.112;8.606;2022-08-30T02:38:31;3.10;;;1.70;;
10410;SDS011;5251;52.112;8.606;2022-08-30T02:40:56;2.15;;;1.65;;
10410;SDS011;5251;52.112;8.606;2022-08-30T02:43:22;1.50;;;1.40;;
10410;SDS011;5251;52.112;8.606;2022-08-30T02:45:49;1.88;;;1.33;;
10410;SDS011;5251;52.112;8.606;2022-08-30T02:48:14;1.45;;;1.33;;
10410;SDS011;5251;52.112;8.606;2022-08-30T02:50:41;1.63;;;1.50;;
10410;SDS011;5251;52.112;8.606;2022-08-30T02:53:07;3.65;;;1.38;;
10410;SDS011;5251;52.112;8.606;2022-08-30T02:55:33;1.85;;;1.35;;
10410;SDS011;5251;52.112;8.606;2022-08-30T02:57:59;2.13;;;1.40;;
10410;SDS011;5251;52.112;8.606;2022-08-30T03:00:24;1.48;;;1.38;;
10410;SDS011;5251;52.112;8.606;2022-08-30T03:02:50;1.30;;;1.20;;
10410;SDS011;5251;52.112;8.606;2022-08-30T03:05:16;1.80;;;1.40;;
10410;SDS011;5251;52.112;8.606;2022-08-30T03:07:42;1.58;;;1.23;;
10410;SDS011;5251;52.112;8.606;2022-08-30T03:10:09;1.40;;;1.30;;
10410;SDS011;5251;52.112;8.606;2022-08-30T03:12:35;3.40;;;1.60;;
10410;SDS011;5251;52.112;8.606;2022-08-30T03:15:01;2.30;;;1.60;;
10410;SDS011;5251;52.112;8.606;2022-08-30T03:17:27;1.70;;;1.60;;
10410;SDS011;5251;52.112;8.606;2022-08-30T03:19:53;2.25;;;1.50;;
10410;SDS011;5251;52.112;8.606;2022-08-30T03:22:19;2.33;;;1.90;;
10410;SDS011;5251;52.112;8.606;2022-08-30T03:24:44;1.55;;;1.45;;
10410;SDS011;5251;52.112;8.606;2022-08-30T03:27:10;3.90;;;1.92;;
10410;SDS011;5251;52.112;8.606;2022-08-30T03:29:36;2.63;;;1.60;;
10410;SDS011;5251;52.112;8.606;2022-08-30T03:32:03;1.77;;;1.67;;
10410;SDS011;5251;52.112;8.606;2022-08-30T03:34:29;2.15;;;1.77;;
10410;SDS011;5251;52.112;8.606;2022-08-30T03:36:55;2.38;;;1.70;;
10410;SDS011;5251;52.112;8.606;2022-08-30T03:39:22;3.38;;;1.92;;
10410;SDS011;5251;52.112;8.606;2022-08-30T03:41:49;2.00;;;1.63;;
10410;SDS011;5251;52.112;8.606;2022-08-30T03:44:15;2.72;;;2.22;;
10410;SDS011;5251;52.112;8.606;2022-08-30T03:46:40;2.25;;;1.95;;
10410;SDS011;5251;52.112;8.606;2022-08-30T03:49:06;2.65;;;1.75;;
10410;SDS011;5251;52.112;8.606;2022-08-30T03:51:32;1.98;;;1.75;;
10410;SDS011;5251;52.112;8.606;2022-08-30T03:53:58;3.45;;;1.80;;
10410;SDS011;5251;52.112;8.606;2022-08-30T03:56:24;2.03;;;1.77;;
10410;SDS011;5251;52.112;8.606;2022-08-30T03:58:50;2.72;;;1.80;;
10410;SDS011;5251;52.112;8.606;2022-08-30T04:01:16;2.25;;;1.90;;
10410;SDS011;5251;52.112;8.606;2022-08-30T04:03:42;3.53;;;2.00;;
10410;SDS011;5251;52.112;8.606;2022-08-30T04:06:07;2.22;;;1.92;;
10410;SDS011;5251;52.112;8.606;2022-08-30T04:08:33;1.90;;;1.80;;
10410;SDS011;5251;52.112;8.606;2022-08-30T04:10:59;1.80;;;1.70;;
10410;SDS011;5251;52.112;8.606;2022-08-30T04:13:26;4.25;;;1.90;;
10410;SDS011;5251;52.112;8.606;2022-08-30T04:15:53;2.75;;;2.13;;
10410;SDS011;5251;52.112;8.606;2022-08-30T04:18:19;2.22;;;1.88;;
10410;SDS011;5251;52.112;8.606;2022-08-30T04:20:45;2.20;;;2.00;;
10410;SDS011;5251;52.112;8.606;2022-08-30T04:23:11;3.58;;;1.85;;
10410;SDS011;5251;52.112;8.606;2022-08-30T04:25:38;2.65;;;2.00;;
10410;SDS011;5251;52.112;8.606;2022-08-30T04:28:06;2.65;;;1.95;;
10410;SDS011;5251;52.112;8.606;2022-08-30T04:30:32;2.80;;;2.10;;
10410;SDS011;5251;52.112;8.606;2022-08-30T04:32:58;2.83;;;2.15;;
10410;SDS011;5251;52.112;8.606;2022-08-30T04:35:24;2.85;;;1.88;;
10410;SDS011;5251;52.112;8.606;2022-08-30T04:37:50;2.80;;;2.10;;
10410;SDS011;5251;52.112;8.606;2022-08-30T04:40:16;2.15;;;1.92;;
10410;SDS011;5251;52.112;8.606;2022-08-30T04:42:41;2.42;;;2.00;;
10410;SDS011;5251;52.112;8.606;2022-08-30T04:45:12;2.97;;;2.03;;
10410;SDS011;5251;52.112;8.606;2022-08-30T04:47:40;3.08;;;2.30;;
10410;SDS011;5251;52.112;8.606;2022-08-30T04:50:07;4.20;;;2.03;;
10410;SDS011;5251;52.112;8.606;2022-08-30T04:52:34;3.47;;;2.30;;
10410;SDS011;5251;52.112;8.606;2022-08-30T04:55:01;3.90;;;2.75;;
10410;SDS011;5251;52.112;8.606;2022-08-30T04:57:28;2.92;;;2.63;;
10410;SDS011;5251;52.112;8.606;2022-08-30T04:59:54;3.55;;;2.40;;
10410;SDS011;5251;52.112;8.606;2022-08-30T05:02:20;2.80;;;2.60;;
10410;SDS011;5251;52.112;8.606;2022-08-30T05:04:45;3.08;;;2.78;;
10410;SDS011;5251;52.112;8.606;2022-08-30T05:07:30;3.05;;;2.47;;
10410;SDS011;5251;52.112;8.606;2022-08-30T05:09:56;3.05;;;2.75;;
10410;SDS011;5251;52.112;8.606;2022-08-30T05:12:22;3.60;;;3.13;;
10410;SDS011;5251;52.112;8.606;2022-08-30T05:14:48;4.50;;;3.50;;
10410;SDS011;5251;52.112;8.606;2022-08-30T05:17:14;5.80;;;4.60;;
10410;SDS011;5251;52.112;8.606;2022-08-30T05:19:40;5.15;;;4.40;;
10410;SDS011;5251;52.112;8.606;2022-08-30T05:22:06;5.90;;;4.30;;
10410;SDS011;5251;52.112;8.606;2022-08-30T05:24:32;6.10;;;4.85;;
10410;SDS011;5251;52.112;8.606;2022-08-30T05:26:58;7.88;;;5.95;;
10410;SDS011;5251;52.112;8.606;2022-08-30T05:29:24;7.75;;;6.43;;
10410;SDS011;5251;52.112;8.606;2022-08-30T05:31:49;7.65;;;6.70;;
10410;SDS011;5251;52.112;8.606;2022-08-30T05:34:15;8.85;;;7.65;;
10410;SDS011;5251;52.112;8.606;2022-08-30T05:36:41;10.55;;;7.88;;
10410;SDS011;5251;52.112;8.606;2022-08-30T05:39:08;10.32;;;8.20;;
10410;SDS011;5251;52.112;8.606;2022-08-30T05:41:34;9.48;;;7.65;;
10410;SDS011;5251;52.112;8.606;2022-08-30T05:44:01;12.13;;;9.35;;
10410;SDS011;5251;52.112;8.606;2022-08-30T05:46:28;10.73;;;8.70;;
10410;SDS011;5251;52.112;8.606;2022-08-30T05:48:57;11.63;;;8.85;;
10410;SDS011;5251;52.112;8.606;2022-08-30T05:51:26;10.65;;;8.20;;
10410;SDS011;5251;52.112;8.606;2022-08-30T05:53:53;11.60;;;8.35;;
10410;SDS011;5251;52.112;8.606;2022-08-30T05:56:33;9.77;;;7.45;;
10410;SDS011;5251;52.112;8.606;2022-08-30T05:59:01;10.57;;;8.55;;
10410;SDS011;5251;52.112;8.606;2022-08-30T06:01:30;12.50;;;9.18;;
10410;SDS011;5251;52.112;8.606;2022-08-30T06:03:58;11.80;;;8.27;;
10410;SDS011;5251;52.112;8.606;2022-08-30T06:06:26;8.82;;;7.20;;
10410;SDS011;5251;52.112;8.606;2022-08-30T06:08:52;9.27;;;7.28;;
10410;SDS011;5251;52.112;8.606;2022-08-30T06:11:19;10.35;;;7.38;;
10410;SDS011;5251;52.112;8.606;2022-08-30T06:13:46;9.95;;;7.25;;
10410;SDS011;5251;52.112;8.606;2022-08-30T06:16:13;10.20;;;7.80;;
10410;SDS011;5251;52.112;8.606;2022-08-30T06:18:41;9.82;;;7.03;;
10410;SDS011;5251;52.112;8.606;2022-08-30T06:21:08;10.35;;;8.18;;
10410;SDS011;5251;52.112;8.606;2022-08-30T06:23:40;11.23;;;8.23;;
10410;SDS011;5251;52.112;8.606;2022-08-30T06:26:06;12.25;;;9.13;;
10410;SDS011;5251;52.112;8.606;2022-08-30T06:28:32;10.48;;;8.65;;
10410;SDS011;5251;52.112;8.606;2022-08-30T06:30:58;10.60;;;7.50;;
10410;SDS011;5251;52.112;8.606;2022-08-30T06:33:24;10.23;;;7.90;;
10410;SDS011;5251;52.112;8.606;2022-08-30T06:35:49;10.35;;;8.02;;
10410;SDS011;5251;52.112;8.606;2022-08-30T06:38:15;10.25;;;8.13;;
10410;SDS011;5251;52.112;8.606;2022-08-30T06:40:41;11.40;;;8.35;;
10410;SDS011;5251;52.112;8.606;2022-08-30T06:43:07;10.65;;;7.70;;
10410;SDS011;5251;52.112;8.606;2022-08-30T06:45:33;9.00;;;7.50;;
10410;SDS011;5251;52.112;8.606;2022-08-30T06:47:59;10.45;;;7.25;;
10410;SDS011;5251;52.112;8.606;2022-08-30T06:50:25;7.50;;;6.70;;
10410;SDS011;5251;52.112;8.606;2022-08-30T06:52:51;10.18;;;7.07;;
10410;SDS011;5251;52.112;8.606;2022-08-30T06:55:17;8.50;;;6.50;;
10410;SDS011;5251;52.112;8.606;2022-08-30T06:57:44;7.78;;;6.68;;
10410;SDS011;5251;52.112;8.606;2022-08-30T07:00:11;7.30;;;6.00;;
10410;SDS011;5251;52.112;8.606;2022-08-30T07:02:38;7.97;;;5.63;;
10410;SDS011;5251;52.112;8.606;2022-08-30T07:05:05;5.93;;;5.30;;
10410;SDS011;5251;52.112;8.606;2022-08-30T07:07:31;9.57;;;6.20;;
10410;SDS011;5251;52.112;8.606;2022-08-30T07:09:58;7.88;;;5.45;;
10410;SDS011;5251;52.112;8.606;2022-08-30T07:12:25;6.75;;;5.40;;
10410;SDS011;5251;52.112;8.606;2022-08-30T07:14:51;7.63;;;5.65;;
10410;SDS011;5251;52.112;8.606;2022-08-30T07:17:16;7.18;;;5.43;;
10410;SDS011;5251;52.112;8.606;2022-08-30T07:20:01;5.97;;;4.72;;
10410;SDS011;5251;52.112;8.606;2022-08-30T07:22:28;7.05;;;5.10;;
10410;SDS011;5251;52.112;8.606;2022-08-30T07:24:54;5.40;;;4.30;;
10410;SDS011;5251;52.112;8.606;2022-08-30T07:27:19;4.80;;;4.00;;
10410;SDS011;5251;52.112;8.606;2022-08-30T07:29:47;5.20;;;4.10;;
10410;SDS011;5251;52.112;8.606;2022-08-30T07:32:13;5.00;;;4.43;;
10410;SDS011;5251;52.112;8.606;2022-08-30T07:34:38;4.50;;;3.35;;
10410;SDS011;5251;52.112;8.606;2022-08-30T07:37:04;5.43;;;3.92;;
10410;SDS011;5251;52.112;8.606;2022-08-30T07:39:29;4.43;;;4.03;;
10410;SDS011;5251;52.112;8.606;2022-08-30T07:41:55;4.93;;;3.75;;
10410;SDS011;5251;52.112;8.606;2022-08-30T07:44:21;5.47;;;4.05;;
10410;SDS011;5251;52.112;8.606;2022-08-30T07:46:46;4.78;;;4.22;;
10410;SDS011;5251;52.112;8.606;2022-08-30T07:49:12;6.82;;;4.50;;
10410;SDS011;5251;52.112;8.606;2022-08-30T07:51:38;5.43;;;4.93;;
10410;SDS011;5251;52.112;8.606;2022-08-30T07:54:04;4.88;;;4.28;;
10410;SDS011;5251;52.112;8.606;2022-08-30T07:56:30;4.78;;;4.28;;
10410;SDS011;5251;52.112;8.606;2022-08-30T07:58:56;5.43;;;4.45;;
10410;SDS011;5251;52.112;8.606;2022-08-30T08:01:22;5.13;;;4.47;;
10410;SDS011;5251;52.112;8.606;2022-08-30T08:03:48;5.80;;;4.30;;
10410;SDS011;5251;52.112;8.606;2022-08-30T08:06:14;4.75;;;4.07;;
10410;SDS011;5251;52.112;8.606;2022-08-30T08:08:42;4.35;;;3.95;;
10410;SDS011;5251;52.112;8.606;2022-08-30T08:11:13;6.53;;;4.15;;
10410;SDS011;5251;52.112;8.606;2022-08-30T08:13:41;4.43;;;4.03;;
10410;SDS011;5251;52.112;8.606;2022-08-30T08:16:08;4.05;;;3.65;;
10410;SDS011;5251;52.112;8.606;2022-08-30T08:18:34;4.43;;;3.97;;
10410;SDS011;5251;52.112;8.606;2022-08-30T08:21:00;4.18;;;3.45;;
10410;SDS011;5251;52.112;8.606;2022-08-30T08:23:26;5.13;;;3.80;;
10410;SDS011;5251;52.112;8.606;2022-08-30T08:25:52;4.32;;;3.22;;
10410;SDS011;5251;52.112;8.606;2022-08-30T08:28:17;4.55;;;3.35;;
10410;SDS011;5251;52.112;8.606;2022-08-30T08:30:43;3.35;;;3.05;;
10410;SDS011;5251;52.112;8.606;2022-08-30T08:33:09;2.80;;;2.33;;
10410;SDS011;5251;52.112;8.606;2022-08-30T08:35:37;2.95;;;2.53;;
10410;SDS011;5251;52.112;8.606;2022-08-30T08:38:03;3.22;;;2.60;;
10410;SDS011;5251;52.112;8.606;2022-08-30T08:40:29;2.72;;;2.50;;
10410;SDS011;5251;52.112;8.606;2022-08-30T08:43:10;3.15;;;2.70;;
10410;SDS011;5251;52.112;8.606;2022-08-30T08:48:39;3.05;;;2.53;;
10410;SDS011;5251;52.112;8.606;2022-08-30T08:51:10;2.42;;;2.22;;
10410;SDS011;5251;52.112;8.606;2022-08-30T08:54:23;2.70;;;2.50;;
10410;SDS011;5251;52.112;8.606;2022-08-30T08:57:01;3.28;;;2.42;;
10410;SDS011;5251;52.112;8.606;2022-08-30T08:59:26;2.38;;;2.13;;
10410;SDS011;5251;52.112;8.606;2022-08-30T09:01:53;2.45;;;2.25;;
10410;SDS011;5251;52.112;8.606;2022-08-30T09:04:23;2.22;;;2.03;;
10410;SDS011;5251;52.112;8.606;2022-08-30T09:06:56;2.33;;;2.13;;
10410;SDS011;5251;52.112;8.606;2022-08-30T09:09:27;2.53;;;2.17;;
10410;SDS011;5251;52.112;8.606;2022-08-30T09:11:55;2.33;;;1.83;;
10410;SDS011;5251;52.112;8.606;2022-08-30T09:14:22;2.35;;;1.95;;
10410;SDS011;5251;52.112;8.606;2022-08-30T09:24:37;3.08;;;1.88;;
10410;SDS011;5251;52.112;8.606;2022-08-30T09:29:52;4.03;;;2.30;;
10410;SDS011;5251;52.112;8.606;2022-08-30T09:32:24;2.40;;;2.17;;
10410;SDS011;5251;52.112;8.606;2022-08-30T09:34:51;2.25;;;2.00;;
10410;SDS011;5251;52.112;8.606;2022-08-30T09:37:34;2.10;;;1.90;;
10410;SDS011;5251;52.112;8.606;2022-08-30T09:40:25;5.47;;;2.20;;
10410;SDS011;5251;52.112;8.606;2022-08-30T09:43:20;4.15;;;1.95;;
10410;SDS011;5251;52.112;8.606;2022-08-30T10:01:35;2.33;;;1.80;;
10410;SDS011;5251;52.112;8.606;2022-08-30T10:04:28;1.83;;;1.73;;
10410;SDS011;5251;52.112;8.606;2022-08-30T10:07:12;2.40;;;1.60;;
10410;SDS011;5251;52.112;8.606;2022-08-30T10:12:28;2.08;;;1.80;;
10410;SDS011;5251;52.112;8.606;2022-08-30T10:15:13;2.30;;;2.10;;
10410;SDS011;5251;52.112;8.606;2022-08-30T10:17:55;1.77;;;1.63;;
10410;SDS011;5251;52.112;8.606;2022-08-30T10:25:31;2.47;;;1.80;;
10410;SDS011;5251;52.112;8.606;2022-08-30T10:28:04;1.95;;;1.80;;
10410;SDS011;5251;52.112;8.606;2022-08-30T10:30:31;1.70;;;1.60;;
10410;SDS011;5251;52.112;8.606;2022-08-30T10:33:17;1.95;;;1.75;;
10410;SDS011;5251;52.112;8.606;2022-08-30T10:35:49;2.30;;;1.70;;
10410;SDS011;5251;52.112;8.606;2022-08-30T10:40:59;2.15;;;1.95;;
10410;SDS011;5251;52.112;8.606;2022-08-30T10:49:59;2.58;;;1.50;;
10410;SDS011;5251;52.112;8.606;2022-08-30T10:52:35;1.70;;;1.55;;
10410;SDS011;5251;52.112;8.606;2022-08-30T10:55:18;2.78;;;1.50;;
10410;SDS011;5251;52.112;8.606;2022-08-30T10:57:49;1.77;;;1.25;;
10410;SDS011;5251;52.112;8.606;2022-08-30T11:00:22;1.40;;;1.30;;
10410;SDS011;5251;52.112;8.606;2022-08-30T11:05:37;1.55;;;1.38;;
10410;SDS011;5251;52.112;8.606;2022-08-30T11:08:26;2.83;;;1.60;;
10410;SDS011;5251;52.112;8.606;2022-08-30T11:14:05;1.40;;;1.30;;
10410;SDS011;5251;52.112;8.606;2022-08-30T11:16:38;1.55;;;1.45;;
10410;SDS011;5251;52.112;8.606;2022-08-30T11:19:27;1.75;;;1.40;;
10410;SDS011;5251;52.112;8.606;2022-08-30T11:22:35;1.48;;;1.38;;
10410;SDS011;5251;52.112;8.606;2022-08-30T11:27:46;1.63;;;1.40;;
10410;SDS011;5251;52.112;8.606;2022-08-30T11:35:47;1.40;;;1.30;;
10410;SDS011;5251;52.112;8.606;2022-08-30T11:48:51;2.20;;;2.00;;
10410;SDS011;5251;52.112;8.606;2022-08-30T11:52:07;2.22;;;2.03;;
10410;SDS011;5251;52.112;8.606;2022-08-30T12:01:54;3.03;;;2.53;;
10410;SDS011;5251;52.112;8.606;2022-08-30T12:12:08;3.38;;;2.67;;
10410;SDS011;5251;52.112;8.606;2022-08-30T12:14:50;3.03;;;2.72;;
10410;SDS011;5251;52.112;8.606;2022-08-30T12:20:37;3.00;;;2.80;;
10410;SDS011;5251;52.112;8.606;2022-08-30T12:26:57;3.17;;;2.88;;
10410;SDS011;5251;52.112;8.606;2022-08-30T12:29:06;3.03;;;2.60;;
10410;SDS011;5251;52.112;8.606;2022-08-30T12:32:02;3.03;;;2.72;;
10410;SDS011;5251;52.112;8.606;2022-08-30T12:37:08;2.67;;;2.47;;
10410;SDS011;5251;52.112;8.606;2022-08-30T12:39:44;4.00;;;3.08;;
10410;SDS011;5251;52.112;8.606;2022-08-30T12:42:30;2.83;;;2.60;;
10410;SDS011;5251;52.112;8.606;2022-08-30T12:44:58;3.13;;;2.60;;
10410;SDS011;5251;52.112;8.606;2022-08-30T12:47:45;2.70;;;2.50;;
10410;SDS011;5251;52.112;8.606;2022-08-30T12:50:23;3.05;;;2.60;;
10410;SDS011;5251;52.112;8.606;2022-08-30T12:52:58;2.78;;;2.58;;
10410;SDS011;5251;52.112;8.606;2022-08-30T12:55:27;2.75;;;2.55;;
10410;SDS011;5251;52.112;8.606;2022-08-30T12:57:59;3.15;;;2.50;;
10410;SDS011;5251;52.112;8.606;2022-08-30T13:00:29;5.97;;;2.30;;
10410;SDS011;5251;52.112;8.606;2022-08-30T13:06:04;2.75;;;2.35;;
10410;SDS011;5251;52.112;8.606;2022-08-30T13:11:01;2.63;;;2.42;;
10410;SDS011;5251;52.112;8.606;2022-08-30T13:16:08;3.08;;;2.30;;
10410;SDS011;5251;52.112;8.606;2022-08-30T13:18:37;3.13;;;2.67;;
10410;SDS011;5251;52.112;8.606;2022-08-30T13:21:09;4.22;;;2.90;;
10410;SDS011;5251;52.112;8.606;2022-08-30T13:23:46;6.72;;;2.42;;
10410;SDS011;5251;52.112;8.606;2022-08-30T13:26:13;2.35;;;2.15;;
10410;SDS011;5251;52.112;8.606;2022-08-30T13:28:43;6.45;;;2.25;;
10410;SDS011;5251;52.112;8.606;2022-08-30T13:31:14;3.63;;;2.35;;
10410;SDS011;5251;52.112;8.606;2022-08-30T13:33:39;4.68;;;2.38;;
10410;SDS011;5251;52.112;8.606;2022-08-30T13:36:05;2.15;;;1.95;;
10410;SDS011;5251;52.112;8.606;2022-08-30T13:38:31;2.42;;;2.05;;
10410;SDS011;5251;52.112;8.606;2022-08-30T13:40:56;2.20;;;2.00;;
10410;SDS011;5251;52.112;8.606;2022-08-30T13:43:22;2.35;;;2.15;;
10410;SDS011;5251;52.112;8.606;2022-08-30T13:45:48;2.00;;;1.75;;
10410;SDS011;5251;52.112;8.606;2022-08-30T13:48:14;2.10;;;1.90;;
10410;SDS011;5251;52.112;8.606;2022-08-30T13:50:39;3.67;;;1.90;;
10410;SDS011;5251;52.112;8.606;2022-08-30T13:53:07;2.10;;;1.70;;
10410;SDS011;5251;52.112;8.606;2022-08-30T13:55:33;5.32;;;2.58;;
10410;SDS011;5251;52.112;8.606;2022-08-30T13:58:00;2.40;;;1.90;;
10410;SDS011;5251;52.112;8.606;2022-08-30T14:00:25;3.38;;;2.30;;
10410;SDS011;5251;52.112;8.606;2022-08-30T14:02:51;2.03;;;1.83;;
10410;SDS011;5251;52.112;8.606;2022-08-30T14:05:20;2.03;;;1.83;;
10410;SDS011;5251;52.112;8.606;2022-08-30T14:07:54;2.03;;;1.70;;
10410;SDS011;5251;52.112;8.606;2022-08-30T14:10:20;2.92;;;1.88;;
10410;SDS011;5251;52.112;8.606;2022-08-30T14:12:51;3.22;;;1.70;;
10410;SDS011;5251;52.112;8.606;2022-08-30T14:15:17;3.05;;;2.03;;
10410;SDS011;5251;52.112;8.606;2022-08-30T14:17:43;2.83;;;2.10;;
10410;SDS011;5251;52.112;8.606;2022-08-30T14:20:09;2.13;;;1.90;;
10410;SDS011;5251;52.112;8.606;2022-08-30T14:22:36;2.88;;;1.90;;
10410;SDS011;5251;52.112;8.606;2022-08-30T14:25:01;3.35;;;1.70;;
10410;SDS011;5251;52.112;8.606;2022-08-30T14:27:28;2.88;;;2.00;;
10410;SDS011;5251;52.112;8.606;2022-08-30T14:29:54;2.10;;;1.70;;
10410;SDS011;5251;52.112;8.606;2022-08-30T14:32:20;3.08;;;1.80;;
10410;SDS011;5251;52.112;8.606;2022-08-30T14:34:45;2.13;;;1.70;;
10410;SDS011;5251;52.112;8.606;2022-08-30T14:37:11;2.10;;;1.80;;
10410;SDS011;5251;52.112;8.606;2022-08-30T14:39:37;2.15;;;1.80;;
10410;SDS011;5251;52.112;8.606;2022-08-30T14:42:03;2.33;;;1.63;;
10410;SDS011;5251;52.112;8.606;2022-08-30T14:44:29;5.10;;;1.80;;
10410;SDS011;5251;52.112;8.606;2022-08-30T14:46:54;2.47;;;1.65;;
10410;SDS011;5251;52.112;8.606;2022-08-30T14:49:21;1.90;;;1.67;;
10410;SDS011;5251;52.112;8.606;2022-08-30T14:51:48;3.33;;;2.10;;
10410;SDS011;5251;52.112;8.606;2022-08-30T14:54:14;2.08;;;1.75;;
10410;SDS011;5251;52.112;8.606;2022-08-30T14:56:40;2.40;;;1.52;;
10410;SDS011;5251;52.112;8.606;2022-08-30T14:59:06;2.05;;;1.63;;
10410;SDS011;5251;52.112;8.606;2022-08-30T15:01:33;2.03;;;1.70;;
10410;SDS011;5251;52.112;8.606;2022-08-30T15:03:59;2.15;;;1.70;;
10410;SDS011;5251;52.112;8.606;2022-08-30T15:06:25;1.75;;;1.63;;
10410;SDS011;5251;52.112;8.606;2022-08-30T15:08:51;4.07;;;2.00;;
10410;SDS011;5251;52.112;8.606;2022-08-30T15:11:18;2.35;;;1.70;;
10410;SDS011;5251;52.112;8.606;2022-08-30T15:13:46;2.70;;;2.00;;
10410;SDS011;5251;52.112;8.606;2022-08-30T15:16:13;2.55;;;2.15;;
10410;SDS011;5251;52.112;8.606;2022-08-30T15:18:46;2.45;;;1.88;;
10410;SDS011;5251;52.112;8.606;2022-08-30T15:21:12;3.22;;;1.70;;
10410;SDS011;5251;52.112;8.606;2022-08-30T15:23:38;3.00;;;1.92;;
10410;SDS011;5251;52.112;8.606;2022-08-30T15:26:05;2.25;;;1.90;;
10410;SDS011;5251;52.112;8.606;2022-08-30T15:28:31;2.58;;;1.88;;
10410;SDS011;5251;52.112;8.606;2022-08-30T15:30:56;1.50;;;1.40;;
10410;SDS011;5251;52.112;8.606;2022-08-30T15:33:22;1.88;;;1.73;;
10410;SDS011;5251;52.112;8.606;2022-08-30T15:35:48;3.95;;;1.65;;
10410;SDS011;5251;52.112;8.606;2022-08-30T15:38:16;2.67;;;1.80;;
10410;SDS011;5251;52.112;8.606;2022-08-30T15:40:43;3.75;;;1.75;;
10410;SDS011;5251;52.112;8.606;2022-08-30T15:43:10;2.00;;;1.63;;
10410;SDS011;5251;52.112;8.606;2022-08-30T15:45:35;1.90;;;1.70;;
10410;SDS011;5251;52.112;8.606;2022-08-30T15:48:01;2.20;;;1.92;;
10410;SDS011;5251;52.112;8.606;2022-08-30T15:50:27;3.00;;;1.92;;
10410;SDS011;5251;52.112;8.606;2022-08-30T15:52:52;3.05;;;2.22;;
10410;SDS011;5251;52.112;8.606;2022-08-30T15:55:18;2.95;;;2.00;;
10410;SDS011;5251;52.112;8.606;2022-08-30T15:57:43;6.35;;;1.80;;
10410;SDS011;5251;52.112;8.606;2022-08-30T16:00:09;2.80;;;1.80;;
10410;SDS011;5251;52.112;8.606;2022-08-30T16:02:36;2.95;;;1.73;;
10410;SDS011;5251;52.112;8.606;2022-08-30T16:05:02;3.75;;;1.67;;
10410;SDS011;5251;52.112;8.606;2022-08-30T16:07:28;2.35;;;1.60;;
10410;SDS011;5251;52.112;8.606;2022-08-30T16:09:53;1.70;;;1.40;;
10410;SDS011;5251;52.112;8.606;2022-08-30T16:12:19;3.30;;;1.50;;
10410;SDS011;5251;52.112;8.606;2022-08-30T16:14:45;2.15;;;1.60;;
10410;SDS011;5251;52.112;8.606;2022-08-30T16:17:10;1.75;;;1.42;;
10410;SDS011;5251;52.112;8.606;2022-08-30T16:19:36;2.17;;;1.40;;
10410;SDS011;5251;52.112;8.606;2022-08-30T16:22:02;2.60;;;1.70;;
10410;SDS011;5251;52.112;8.606;2022-08-30T16:24:28;2.53;;;1.60;;
10410;SDS011;5251;52.112;8.606;2022-08-30T16:26:54;2.03;;;1.40;;
10410;SDS011;5251;52.112;8.606;2022-08-30T16:29:20;2.85;;;1.73;;
10410;SDS011;5251;52.112;8.606;2022-08-30T16:31:45;4.05;;;1.60;;
10410;SDS011;5251;52.112;8.606;2022-08-30T16:34:12;2.60;;;1.30;;
10410;SDS011;5251;52.112;8.606;2022-08-30T16:36:40;1.50;;;1.30;;
10410;SDS011;5251;52.112;8.606;2022-08-30T16:39:06;1.42;;;1.30;;
10410;SDS011;5251;52.112;8.606;2022-08-30T16:41:33;1.75;;;1.33;;
10410;SDS011;5251;52.112;8.606;2022-08-30T16:43:59;1.38;;;1.20;;
10410;SDS011;5251;52.112;8.606;2022-08-30T16:46:25;1.25;;;1.15;;
10410;SDS011;5251;52.112;8.606;2022-08-30T16:48:51;1.67;;;1.30;;
10410;SDS011;5251;52.112;8.606;2022-08-30T16:51:18;1.38;;;1.27;;
10410;SDS011;5251;52.112;8.606;2022-08-30T16:53:46;1.35;;;1.20;;